createdAt,value
2022-11-19T00:01:55.311Z,99799.95
2022-11-19T00:04:27.444Z,99797.38
2022-11-19T00:07:01.385Z,99797.41
2022-11-19T00:09:32.470Z,99806.79
2022-11-19T00:12:21.397Z,99804.21
2022-11-19T00:14:53.097Z,99799.95
2022-11-19T00:17:24.833Z,99787.98
2022-11-19T00:19:55.912Z,99786.23
2022-11-19T00:22:28.183Z,99790.50
2022-11-19T00:25:01.288Z,99793.92
2022-11-19T00:27:32.982Z,99799.91
2022-11-19T00:30:10.936Z,99804.16
2022-11-19T00:32:38.117Z,99804.13
2022-11-19T00:35:10.989Z,99810.93
2022-11-19T00:37:42.523Z,99807.45
2022-11-19T00:40:13.710Z,99807.40
2022-11-19T00:42:46.222Z,99816.75
2022-11-19T00:45:17.360Z,99817.50
2022-11-19T00:47:48.669Z,99825.13
2022-11-19T00:50:20.158Z,99826.78
2022-11-19T00:52:51.913Z,99823.35
2022-11-19T00:55:23.070Z,99829.27
2022-11-19T00:57:54.260Z,99832.66
2022-11-19T01:00:25.508Z,99832.60
2022-11-19T01:02:57.763Z,99833.37
2022-11-19T01:05:28.516Z,99841.05
2022-11-19T01:07:59.979Z,99852.93
2022-11-19T01:10:31.309Z,99858.91
2022-11-19T01:13:20.549Z,99851.24
2022-11-19T01:15:52.341Z,99858.97
2022-11-19T01:18:24.184Z,99864.98
2022-11-19T01:20:55.613Z,99864.16
2022-11-19T01:23:26.560Z,99868.48
2022-11-19T01:25:58.601Z,99866.83
2022-11-19T01:28:31.686Z,99861.73
2022-11-19T01:31:04.684Z,99867.77
2022-11-19T01:33:36.090Z,99880.56
2022-11-19T01:36:08.418Z,99877.23
2022-11-19T01:38:47.625Z,99878.14
2022-11-19T01:41:18.708Z,99867.92
2022-11-19T01:43:52.187Z,99875.69
2022-11-19T01:46:32.031Z,99881.73
2022-11-19T01:49:04.805Z,99890.37
2022-11-19T01:51:39.977Z,99893.84
2022-11-19T01:54:12.908Z,99896.46
2022-11-19T01:56:44.024Z,99892.20
2022-11-19T01:59:17.471Z,99897.39
2022-11-19T02:01:49.276Z,99905.98
2022-11-19T02:04:22.465Z,99906.86
2022-11-19T02:06:55.683Z,99908.57
2022-11-19T02:09:28.273Z,99903.47
2022-11-19T02:12:15.795Z,99909.48
2022-11-19T02:14:59.947Z,99913.78
2022-11-19T02:17:36.536Z,99924.06
2022-11-19T02:20:08.985Z,99922.38
2022-11-19T02:22:44.386Z,99921.52
2022-11-19T02:25:20.049Z,99915.53
2022-11-19T02:27:58.530Z,99933.55
2022-11-19T02:30:30.728Z,99925.86
2022-11-19T02:33:09.681Z,99935.27
2022-11-19T02:35:45.647Z,99935.26
2022-11-19T02:38:21.203Z,99927.58
2022-11-19T02:40:53.725Z,99918.16
2022-11-19T02:43:39.067Z,99913.89
2022-11-19T02:46:11.543Z,99907.88
2022-11-19T02:48:49.115Z,99910.44
2022-11-19T02:51:20.869Z,99913.02
2022-11-19T02:53:53.684Z,99920.73
2022-11-19T02:56:26.243Z,99927.59
2022-11-19T02:59:15.723Z,99925.87
2022-11-19T03:02:07.987Z,99921.61
2022-11-19T03:04:39.061Z,99928.44
2022-11-19T03:07:17.574Z,99924.16
2022-11-19T03:09:58.998Z,99932.73
2022-11-19T03:12:50.015Z,99929.30
2022-11-19T03:15:44.694Z,99926.73
2022-11-19T03:18:17.371Z,99926.74
2022-11-19T03:20:55.779Z,99936.16
2022-11-19T03:23:28.101Z,99934.46
2022-11-19T03:26:03.876Z,99939.58
2022-11-19T03:28:36.133Z,99949.03
2022-11-19T03:31:07.840Z,99949.01
2022-11-19T03:33:40.624Z,99940.47
2022-11-19T03:36:14.881Z,99944.75
2022-11-19T03:38:47.700Z,99943.02
2022-11-19T03:41:20.130Z,99942.17
2022-11-19T03:43:57.979Z,99938.73
2022-11-19T03:46:32.516Z,99947.32
2022-11-19T03:49:04.939Z,99958.45
2022-11-19T03:51:44.010Z,99963.60
2022-11-19T03:54:15.494Z,99964.45
2022-11-19T03:56:48.053Z,99955.05
2022-11-19T03:59:22.482Z,99963.59
2022-11-19T04:01:53.742Z,99976.45
2022-11-19T04:04:37.848Z,99970.48
2022-11-19T04:07:11.050Z,99970.48
2022-11-19T04:09:42.411Z,99972.19
2022-11-19T04:12:15.170Z,99978.17
2022-11-19T04:14:47.160Z,99979.88
2022-11-19T04:17:18.972Z,99991.88
2022-11-19T04:19:50.288Z,99990.17
2022-11-19T04:22:23.850Z,99999.59
2022-11-19T04:24:54.795Z,99995.33
2022-11-19T04:27:26.247Z,99984.19
2022-11-19T04:29:57.476Z,99990.17
2022-11-19T04:32:30.091Z,99997.03
2022-11-19T04:35:01.413Z,99999.61
2022-11-19T04:37:35.829Z,100024.47
2022-11-19T04:40:07.848Z,100017.62
2022-11-19T04:42:38.918Z,100018.47
2022-11-19T04:45:10.989Z,100009.05
2022-11-19T04:47:42.352Z,99993.58
2022-11-19T04:50:15.120Z,100001.31
2022-11-19T04:52:46.692Z,100016.75
2022-11-19T04:55:17.944Z,100033.03
2022-11-19T04:57:54.440Z,100028.75
2022-11-19T05:00:26.394Z,100028.76
2022-11-19T05:03:00.714Z,100021.05
2022-11-19T05:05:32.460Z,100018.48
2022-11-19T05:08:04.643Z,100021.02
2022-11-19T05:10:36.885Z,100016.75
2022-11-19T05:13:08.435Z,100015.88
2022-11-19T05:15:39.627Z,100011.61
2022-11-19T05:18:11.231Z,100006.42
2022-11-19T05:20:42.224Z,99998.73
2022-11-19T05:23:14.187Z,99992.72
2022-11-19T05:25:47.611Z,99993.56
2022-11-19T05:28:32.767Z,100005.56
2022-11-19T05:30:57.533Z,99997.01
2022-11-19T05:33:33.822Z,99996.14
2022-11-19T05:36:02.361Z,100003.00
2022-11-19T05:38:35.507Z,100013.29
2022-11-19T05:41:06.919Z,100016.70
2022-11-19T05:43:37.832Z,100009.84
2022-11-19T05:46:09.057Z,100019.23
2022-11-19T05:48:40.414Z,100023.48
2022-11-19T05:51:13.203Z,100014.89
2022-11-19T05:53:44.980Z,100024.28
2022-11-19T05:56:16.030Z,100024.27
2022-11-19T05:58:47.089Z,100028.52
2022-11-19T06:01:19.367Z,100032.79
2022-11-19T06:03:50.335Z,100023.34
2022-11-19T06:06:22.189Z,100027.63
2022-11-19T06:08:53.781Z,100028.47
2022-11-19T06:11:42.591Z,100021.55
2022-11-19T06:14:25.471Z,100025.00
2022-11-19T06:17:03.998Z,100018.97
2022-11-19T06:19:38.248Z,100022.36
2022-11-19T06:22:10.239Z,100015.45
2022-11-19T06:24:41.535Z,100018.08
2022-11-19T06:27:12.609Z,100026.70
2022-11-19T06:29:43.902Z,100018.97
2022-11-19T06:32:15.857Z,100020.72
2022-11-19T06:34:47.057Z,100021.56
2022-11-19T06:37:18.439Z,100024.13
2022-11-19T06:39:54.469Z,100032.73
2022-11-19T06:42:37.969Z,100041.24
2022-11-19T06:45:11.260Z,100050.67
2022-11-19T06:47:43.042Z,100054.06
2022-11-19T06:50:14.361Z,100058.34
2022-11-19T06:52:45.831Z,100059.16
2022-11-19T06:55:16.785Z,100059.16
2022-11-19T06:57:48.166Z,100059.14
2022-11-19T07:00:19.523Z,100054.80
2022-11-19T07:02:50.728Z,100064.23
2022-11-19T07:05:25.251Z,100067.64
2022-11-19T07:08:01.579Z,100072.80
2022-11-19T07:10:29.911Z,100083.98
2022-11-19T07:13:02.447Z,100090.84
2022-11-19T07:15:33.902Z,100096.81
2022-11-19T07:18:07.458Z,100100.20
2022-11-19T07:20:38.975Z,100099.31
2022-11-19T07:23:12.060Z,100099.27
2022-11-19T07:25:43.651Z,100108.69
2022-11-19T07:28:16.236Z,100116.45
2022-11-19T07:30:47.658Z,100119.03
2022-11-19T07:33:20.869Z,100129.41
2022-11-19T07:35:54.685Z,100133.71
2022-11-19T07:38:25.807Z,100132.88
2022-11-19T07:40:57.124Z,100137.22
2022-11-19T07:43:28.336Z,100144.09
2022-11-19T07:46:04.001Z,100145.73
2022-11-19T07:48:35.849Z,100144.03
2022-11-19T07:51:06.959Z,100150.80
2022-11-19T07:53:38.292Z,100148.97
2022-11-19T07:56:09.844Z,100150.70
2022-11-19T07:58:45.934Z,100149.02
2022-11-19T08:01:18.955Z,100141.27
2022-11-19T08:03:56.587Z,100152.44
2022-11-19T08:06:27.232Z,100151.62
2022-11-19T08:08:58.601Z,100144.75
2022-11-19T08:11:29.752Z,100152.52
2022-11-19T08:14:03.507Z,100156.00
2022-11-19T08:16:52.626Z,100148.24
2022-11-19T08:19:23.836Z,100151.71
2022-11-19T08:21:55.907Z,100149.14
2022-11-19T08:24:27.733Z,100147.41
2022-11-19T08:26:58.783Z,100142.24
2022-11-19T08:29:30.894Z,100137.02
2022-11-19T08:32:02.695Z,100136.14
2022-11-19T08:34:34.475Z,100138.69
2022-11-19T08:37:05.690Z,100128.35
2022-11-19T08:39:37.100Z,100131.78
2022-11-19T08:42:26.656Z,100122.30
2022-11-19T08:44:58.932Z,100109.34
2022-11-19T08:47:32.368Z,100108.44
2022-11-19T08:50:03.749Z,100109.30
2022-11-19T08:52:35.930Z,100112.70
2022-11-19T08:55:08.574Z,100111.00
2022-11-19T08:57:45.574Z,100121.31
2022-11-19T09:00:18.295Z,100123.83
2022-11-19T09:02:50.156Z,100122.06
2022-11-19T09:05:30.992Z,100121.16
2022-11-19T09:08:03.850Z,100109.92
2022-11-19T09:10:38.249Z,100122.86
2022-11-19T09:13:09.836Z,100115.10
2022-11-19T09:15:42.375Z,100113.40
2022-11-19T09:18:15.745Z,100118.56
2022-11-19T09:20:47.276Z,100122.94
2022-11-19T09:23:19.222Z,100128.11
2022-11-19T09:25:59.218Z,100131.54
2022-11-19T09:28:30.658Z,100137.61
2022-11-19T09:31:05.394Z,100137.66
2022-11-19T09:33:37.818Z,100144.58
2022-11-19T09:36:10.121Z,100153.20
2022-11-19T09:38:41.303Z,100156.59
2022-11-19T09:41:20.779Z,100157.48
2022-11-19T09:43:54.548Z,100146.20
2022-11-19T09:46:26.935Z,100154.63
2022-11-19T09:48:59.414Z,100159.81
2022-11-19T09:51:32.116Z,100153.81
2022-11-19T09:54:07.302Z,100159.91
2022-11-19T09:56:40.173Z,100159.97
2022-11-19T09:59:30.418Z,100154.82
2022-11-19T10:02:01.392Z,100154.89
2022-11-19T10:04:33.640Z,100164.34
2022-11-19T10:07:09.101Z,100156.52
2022-11-19T10:09:50.702Z,100153.05
2022-11-19T10:12:35.091Z,100152.27
2022-11-19T10:15:16.549Z,100154.94
2022-11-19T10:18:03.566Z,100149.81
2022-11-19T10:20:35.737Z,100150.66
2022-11-19T10:23:24.605Z,100137.72
2022-11-19T10:25:56.809Z,100140.25
2022-11-19T10:28:29.191Z,100133.36
2022-11-19T10:31:01.561Z,100135.97
2022-11-19T10:33:33.953Z,100129.98
2022-11-19T10:36:06.302Z,100140.38
2022-11-19T10:38:41.889Z,100129.16
2022-11-19T10:41:14.454Z,100118.84
2022-11-19T10:43:48.476Z,100121.40
2022-11-19T10:46:20.733Z,100122.24
2022-11-19T10:48:56.070Z,100107.63
2022-11-19T10:51:31.733Z,100111.92
2022-11-19T10:54:04.200Z,100109.39
2022-11-19T10:56:40.414Z,100094.72
2022-11-19T10:59:12.875Z,100095.59
2022-11-19T11:01:45.202Z,100098.98
2022-11-19T11:04:23.651Z,100085.16
2022-11-19T11:07:02.162Z,100086.03
2022-11-19T11:09:34.592Z,100080.83
2022-11-19T11:12:24.560Z,100076.59
2022-11-19T11:14:57.053Z,100070.57
2022-11-19T11:17:32.217Z,100060.31
2022-11-19T11:20:07.762Z,100059.46
2022-11-19T11:22:39.435Z,100061.20
2022-11-19T11:25:23.984Z,100073.23
2022-11-19T11:28:13.106Z,100070.59
2022-11-19T11:31:03.052Z,100066.30
2022-11-19T11:33:35.775Z,100070.63
2022-11-19T11:36:08.371Z,100070.66
2022-11-19T11:38:50.236Z,100080.92
2022-11-19T11:44:02.926Z,100067.28
2022-11-19T11:46:38.350Z,100069.00
2022-11-19T11:49:12.890Z,100063.82
2022-11-19T11:51:44.178Z,100062.94
2022-11-19T11:54:19.059Z,100057.76
2022-11-19T11:56:50.040Z,100053.48
2022-11-19T11:59:28.362Z,100050.91
2022-11-19T12:02:07.159Z,100041.39
2022-11-19T12:04:38.425Z,100047.45
2022-11-19T12:07:27.247Z,100049.20
2022-11-19T12:10:03.729Z,100063.80
2022-11-19T12:12:45.261Z,100049.20
2022-11-19T12:15:23.730Z,100037.20
2022-11-19T12:17:59.001Z,100045.81
2022-11-19T12:20:46.343Z,100036.31
2022-11-19T12:23:35.730Z,100035.52
2022-11-19T12:26:17.248Z,100047.61
2022-11-19T12:28:58.616Z,100045.91
2022-11-19T12:31:30.956Z,100046.80
2022-11-19T12:34:20.230Z,100055.35
2022-11-19T12:36:59.075Z,100057.07
2022-11-19T12:39:31.826Z,100051.92
2022-11-19T12:42:07.147Z,100055.37
2022-11-19T12:44:57.533Z,100044.23
2022-11-19T12:47:30.150Z,100045.94
2022-11-19T12:50:05.333Z,100045.02
2022-11-19T12:52:38.016Z,100057.97
2022-11-19T12:55:10.610Z,100049.34
2022-11-19T12:57:49.189Z,100039.09
2022-11-19T13:00:24.560Z,100039.95
2022-11-19T13:02:57.273Z,100036.55
2022-11-19T13:05:29.733Z,100033.98
2022-11-19T13:08:02.171Z,100036.58
2022-11-19T13:10:43.208Z,100035.69
2022-11-19T13:13:15.977Z,100035.70
2022-11-19T13:15:48.443Z,100032.30
2022-11-19T13:18:20.675Z,100031.44
2022-11-19T13:20:59.288Z,100041.76
2022-11-19T13:23:31.926Z,100046.08
2022-11-19T13:26:04.793Z,100033.20
2022-11-19T13:28:37.460Z,100033.20
2022-11-19T13:31:18.794Z,100028.86
2022-11-19T13:33:51.238Z,100014.23
2022-11-19T13:36:32.766Z,100010.77
2022-11-19T13:39:18.001Z,100002.17
2022-11-19T13:42:10.831Z,100002.20
2022-11-19T13:44:41.873Z,100006.49
2022-11-19T13:47:14.483Z,100006.42
2022-11-19T13:49:47.058Z,99998.67
2022-11-19T13:52:37.884Z,100011.59
2022-11-19T13:55:10.180Z,100001.25
2022-11-19T13:57:42.481Z,99993.58
2022-11-19T14:00:24.138Z,99987.58
2022-11-19T14:02:59.272Z,99991.08
2022-11-19T14:05:43.715Z,99994.41
2022-11-19T14:08:28.262Z,99992.73
2022-11-19T14:11:00.669Z,99985.87
2022-11-19T14:13:35.954Z,99979.88
2022-11-19T14:16:37.945Z,99982.41
2022-11-19T14:19:28.073Z,99983.34
2022-11-19T14:22:17.685Z,99978.17
2022-11-19T14:25:07.480Z,99982.48
2022-11-19T14:27:38.491Z,99985.92
2022-11-19T14:30:10.579Z,99983.34
2022-11-19T14:32:49.249Z,99967.89
2022-11-19T14:35:24.778Z,99965.30
2022-11-19T14:37:57.757Z,99964.48
2022-11-19T14:40:30.269Z,99967.88
2022-11-19T14:43:20.345Z,99961.85
2022-11-19T14:46:22.371Z,99956.67
2022-11-19T14:48:55.403Z,99962.73
2022-11-19T14:51:33.926Z,99956.73
2022-11-19T14:54:18.283Z,99959.34
2022-11-19T14:56:51.439Z,99963.62
2022-11-19T14:59:24.782Z,99961.05
2022-11-19T15:02:03.500Z,99965.38
2022-11-19T15:04:35.978Z,99963.64
2022-11-19T15:07:12.015Z,99965.39
2022-11-19T15:09:53.298Z,99971.37
2022-11-19T15:12:25.755Z,99959.35
2022-11-19T15:15:05.756Z,99948.15
2022-11-19T15:17:37.194Z,99954.22
2022-11-19T15:20:10.449Z,99949.11
2022-11-19T15:22:45.537Z,99941.36
2022-11-19T15:25:30.065Z,99949.11
2022-11-19T15:28:02.840Z,99940.48
2022-11-19T15:30:38.992Z,99944.84
2022-11-19T15:33:12.973Z,99937.98
2022-11-19T15:35:51.601Z,99950.88
2022-11-19T15:38:27.450Z,99947.43
2022-11-19T15:41:00.634Z,99944.84
2022-11-19T15:43:33.291Z,99950.00
2022-11-19T15:46:20.584Z,99947.40
2022-11-19T15:48:59.260Z,99953.45
2022-11-19T15:51:31.691Z,99950.88
2022-11-19T15:54:03.502Z,99943.14
2022-11-19T15:56:41.409Z,99950.00
2022-11-19T15:59:13.812Z,99939.61
2022-11-19T16:01:45.074Z,99937.92
2022-11-19T16:04:16.924Z,99931.06
2022-11-19T16:06:49.343Z,99935.39
2022-11-19T16:09:22.302Z,99945.73
2022-11-19T16:12:12.094Z,99949.14
2022-11-19T16:15:02.252Z,99932.81
2022-11-19T16:17:43.159Z,99938.80
2022-11-19T16:20:13.716Z,99937.02
2022-11-19T16:22:48.622Z,99926.72
2022-11-19T16:25:34.710Z,99934.45
2022-11-19T16:28:07.557Z,99919.88
2022-11-19T16:30:46.653Z,99915.57
2022-11-19T16:33:24.405Z,99914.77
2022-11-19T16:35:56.831Z,99912.19
2022-11-19T16:38:28.895Z,99904.47
2022-11-19T16:41:17.495Z,99905.30
2022-11-19T16:43:50.103Z,99904.45
2022-11-19T16:46:22.678Z,99892.44
2022-11-19T16:48:54.886Z,99893.27
2022-11-19T16:51:33.067Z,99899.30
2022-11-19T16:54:04.484Z,99889.86
2022-11-19T16:56:36.765Z,99894.97
2022-11-19T16:59:08.235Z,99885.53
2022-11-19T17:01:40.368Z,99887.23
2022-11-19T17:04:12.926Z,99888.12
2022-11-19T17:06:43.790Z,99888.12
2022-11-19T17:09:16.160Z,99891.55
2022-11-19T17:12:05.970Z,99880.37
2022-11-19T17:14:39.261Z,99877.81
2022-11-19T17:17:11.982Z,99868.35
2022-11-19T17:19:43.118Z,99870.93
2022-11-19T17:22:18.643Z,99874.34
2022-11-19T17:24:50.132Z,99878.66
2022-11-19T17:27:28.312Z,99883.83
2022-11-19T17:30:03.485Z,99878.66
2022-11-19T17:32:36.205Z,99873.49
2022-11-19T17:35:10.857Z,99870.93
2022-11-19T17:37:42.176Z,99867.45
2022-11-19T17:40:13.239Z,99857.97
2022-11-19T17:43:01.870Z,99856.27
2022-11-19T17:45:32.812Z,99857.95
2022-11-19T17:48:04.046Z,99862.28
2022-11-19T17:50:34.799Z,99858.82
2022-11-19T17:53:05.651Z,99855.38
2022-11-19T17:55:36.728Z,99863.97
2022-11-19T17:58:07.542Z,99858.81
2022-11-19T18:00:38.600Z,99863.87
2022-11-19T18:03:15.996Z,99857.91
2022-11-19T18:05:50.387Z,99862.20
2022-11-19T18:08:21.409Z,99847.61
2022-11-19T18:10:52.524Z,99843.27
2022-11-19T18:13:24.711Z,99850.13
2022-11-19T18:15:55.853Z,99849.30
2022-11-19T18:18:27.030Z,99857.02
2022-11-19T18:21:01.970Z,99849.30
2022-11-19T18:23:30.415Z,99841.56
2022-11-19T18:26:01.342Z,99846.73
2022-11-19T18:28:32.170Z,99844.14
2022-11-19T18:31:02.957Z,99845.84
2022-11-19T18:33:35.582Z,99835.55
2022-11-19T18:36:07.107Z,99838.12
2022-11-19T18:38:37.923Z,99844.16
2022-11-19T18:41:10.264Z,99848.45
2022-11-19T18:43:59.125Z,99842.44
2022-11-19T18:46:29.929Z,99839.88
2022-11-19T18:49:00.795Z,99833.84
2022-11-19T18:51:32.455Z,99835.55
2022-11-19T18:54:03.573Z,99828.67
2022-11-19T18:56:34.518Z,99832.14
2022-11-19T18:59:05.478Z,99835.55
2022-11-19T19:01:38.727Z,99834.73
2022-11-19T19:04:11.218Z,99839.06
2022-11-19T19:06:42.548Z,99839.88
2022-11-19T19:09:15.005Z,99832.14
2022-11-19T19:12:05.416Z,99829.55
2022-11-19T19:14:36.274Z,99827.81
2022-11-19T19:17:07.678Z,99826.95
2022-11-19T19:19:39.039Z,99826.08
2022-11-19T19:22:10.529Z,99822.61
2022-11-19T19:24:41.677Z,99815.69
2022-11-19T19:27:12.862Z,99817.48
2022-11-19T19:29:43.613Z,99821.81
2022-11-19T19:32:14.541Z,99813.18
2022-11-19T19:34:45.507Z,99811.40
2022-11-19T19:37:16.470Z,99815.69
2022-11-19T19:39:47.623Z,99805.41
2022-11-19T19:42:19.339Z,99812.27
2022-11-19T19:44:50.390Z,99807.12
2022-11-19T19:47:21.470Z,99808.83
2022-11-19T19:49:52.226Z,99813.97
2022-11-19T19:52:23.415Z,99811.40
2022-11-19T19:54:54.287Z,99802.78
2022-11-19T19:57:26.946Z,99800.19
2022-11-19T19:59:57.919Z,99798.47
2022-11-19T20:02:28.665Z,99788.14
2022-11-19T20:04:59.582Z,99786.39
2022-11-19T20:07:32.179Z,99770.98
2022-11-19T20:10:03.103Z,99778.75
2022-11-19T20:12:51.588Z,99784.78
2022-11-19T20:15:23.177Z,99791.66
2022-11-19T20:17:53.879Z,99788.22
2022-11-19T20:20:25.064Z,99795.94
2022-11-19T20:22:56.276Z,99784.81
2022-11-19T20:25:27.349Z,99793.44
2022-11-19T20:27:58.349Z,99806.33
2022-11-19T20:30:29.374Z,99799.38
2022-11-19T20:33:01.877Z,99802.73
2022-11-19T20:35:33.411Z,99795.00
2022-11-19T20:38:04.302Z,99794.15
2022-11-19T20:40:35.042Z,99802.77
2022-11-19T20:43:19.803Z,99795.90
2022-11-19T20:45:50.760Z,99798.48
2022-11-19T20:48:21.929Z,99803.63
2022-11-19T20:50:52.782Z,99811.28
2022-11-19T20:53:24.372Z,99812.16
2022-11-19T20:56:05.047Z,99815.55
2022-11-19T20:58:27.637Z,99814.65
2022-11-19T21:01:02.722Z,99812.05
2022-11-19T21:03:34.192Z,99816.34
2022-11-19T21:06:06.747Z,99827.54
2022-11-19T21:08:37.781Z,99824.91
2022-11-19T21:11:12.795Z,99812.05
2022-11-19T21:13:44.621Z,99824.06
2022-11-19T21:16:17.004Z,99817.18
2022-11-19T21:18:47.974Z,99817.19
2022-11-19T21:21:19.613Z,99822.35
2022-11-19T21:23:51.099Z,99811.94
2022-11-19T21:26:23.117Z,99821.42
2022-11-19T21:28:55.137Z,99822.25
2022-11-19T21:31:33.969Z,99823.13
2022-11-19T21:34:01.965Z,99829.09
2022-11-19T21:36:32.985Z,99822.20
2022-11-19T21:39:05.000Z,99827.29
2022-11-19T21:41:36.551Z,99831.63
2022-11-19T21:44:07.704Z,99827.28
2022-11-19T21:46:39.642Z,99831.57
2022-11-19T21:49:10.742Z,99828.16
2022-11-19T21:51:41.795Z,99836.73
2022-11-19T21:54:12.979Z,99828.14
2022-11-19T21:56:44.491Z,99825.56
2022-11-19T21:59:15.584Z,99834.09
2022-11-19T22:01:49.274Z,99830.66
2022-11-19T22:04:19.149Z,99833.22
2022-11-19T22:06:50.019Z,99832.34
2022-11-19T22:09:21.281Z,99828.04
2022-11-19T22:11:52.543Z,99830.63
2022-11-19T22:14:24.272Z,99840.13
2022-11-19T22:16:55.258Z,99834.09
2022-11-19T22:19:26.545Z,99832.40
2022-11-19T22:22:00.672Z,99822.97
2022-11-19T22:24:31.963Z,99816.05
2022-11-19T22:27:15.657Z,99819.52
2022-11-19T22:29:46.601Z,99818.64
2022-11-19T22:32:18.275Z,99820.34
2022-11-19T22:34:49.452Z,99822.08
2022-11-19T22:37:20.362Z,99821.22
2022-11-19T22:39:51.460Z,99821.22
2022-11-19T22:42:22.783Z,99820.34
2022-11-19T22:44:54.118Z,99824.67
2022-11-19T22:47:25.543Z,99816.05
2022-11-19T22:49:56.687Z,99818.64
2022-11-19T22:52:27.819Z,99820.34
2022-11-19T22:54:58.997Z,99817.74
2022-11-19T22:57:32.096Z,99819.48
2022-11-19T23:00:02.970Z,99820.33
2022-11-19T23:02:35.392Z,99814.35
2022-11-19T23:05:06.759Z,99817.81
2022-11-19T23:07:37.813Z,99814.37
2022-11-19T23:10:09.690Z,99816.07
2022-11-19T23:12:59.253Z,99817.80
2022-11-19T23:15:30.155Z,99822.88
2022-11-19T23:18:00.968Z,99822.09
2022-11-19T23:20:32.441Z,99816.94
2022-11-19T23:23:03.848Z,99823.80
2022-11-19T23:25:35.006Z,99813.50
2022-11-19T23:28:05.928Z,99814.38
2022-11-19T23:30:36.708Z,99824.71
2022-11-19T23:33:07.859Z,99823.89
2022-11-19T23:35:38.921Z,99819.58
2022-11-19T23:38:10.147Z,99828.17
2022-11-19T23:40:41.349Z,99839.38
2022-11-19T23:43:12.402Z,99841.96
2022-11-19T23:45:43.398Z,99846.24
2022-11-19T23:48:14.509Z,99841.08
2022-11-19T23:50:45.451Z,99843.67
2022-11-19T23:53:16.617Z,99841.11
2022-11-19T23:55:50.728Z,99849.73
2022-11-19T23:58:21.755Z,99840.23
